sensor_id;sensor_type;location;lat;lon;timestamp;pressure;altitude;pressure_sealevel;temperature;humidity
5283;BME280;15376;48.540;9.268;2024-03-06T00:01:57;97543.25;;;5.51;100.00
5283;BME280;15376;48.540;9.268;2024-03-06T00:04:22;97541.22;;;5.45;100.00
5283;BME280;15376;48.540;9.268;2024-03-06T00:06:47;97543.16;;;5.43;100.00
5283;BME280;15376;48.540;9.268;2024-03-06T00:09:13;97545.81;;;5.43;100.00
5283;BME280;15376;48.540;9.268;2024-03-06T00:11:38;97534.88;;;5.38;100.00
5283;BME280;15376;48.540;9.268;2024-03-06T00:14:05;97555.88;;;5.48;100.00
5283;BME280;15376;48.540;9.268;2024-03-06T00:16:33;97560.84;;;5.51;100.00
5283;BME280;15376;48.540;9.268;2024-03-06T00:18:59;97561.97;;;5.48;100.00
5283;BME280;15376;48.540;9.268;2024-03-06T00:21:24;97551.44;;;5.48;100.00
5283;BME280;15376;48.540;9.268;2024-03-06T00:23:50;97548.13;;;5.46;100.00
5283;BME280;15376;48.540;9.268;2024-03-06T00:26:15;97536.25;;;5.42;100.00
5283;BME280;15376;48.540;9.268;2024-03-06T00:28:40;97543.16;;;5.43;100.00
5283;BME280;15376;48.540;9.268;2024-03-06T00:31:06;97546.63;;;5.44;100.00
5283;BME280;15376;48.540;9.268;2024-03-06T00:33:31;97545.81;;;5.43;100.00
5283;BME280;15376;48.540;9.268;2024-03-06T00:35:56;97546.63;;;5.44;100.00
5283;BME280;15376;48.540;9.268;2024-03-06T00:38:22;97546.47;;;5.45;100.00
5283;BME280;15376;48.540;9.268;2024-03-06T00:40:47;97551.75;;;5.45;100.00
5283;BME280;15376;48.540;9.268;2024-03-06T00:43:13;97550.69;;;5.38;100.00
5283;BME280;15376;48.540;9.268;2024-03-06T00:45:38;97565.66;;;5.38;100.00
5283;BME280;15376;48.540;9.268;2024-03-06T00:48:04;97559.56;;;5.37;100.00
5283;BME280;15376;48.540;9.268;2024-03-06T00:50:29;97560.25;;;5.39;100.00
5283;BME280;15376;48.540;9.268;2024-03-06T00:52:54;97556.25;;;5.35;100.00
5283;BME280;15376;48.540;9.268;2024-03-06T00:55:20;97554.59;;;5.34;100.00
5283;BME280;15376;48.540;9.268;2024-03-06T00:57:45;97551.84;;;5.26;100.00
5283;BME280;15376;48.540;9.268;2024-03-06T01:00:11;97550.00;;;5.18;100.00
5283;BME280;15376;48.540;9.268;2024-03-06T01:02:37;97564.97;;;5.18;100.00
5283;BME280;15376;48.540;9.268;2024-03-06T01:05:03;97561.66;;;5.16;100.00
5283;BME280;15376;48.540;9.268;2024-03-06T01:07:37;97562.00;;;5.21;100.00
5283;BME280;15376;48.540;9.268;2024-03-06T01:10:03;97558.88;;;5.17;100.00
5283;BME280;15376;48.540;9.268;2024-03-06T01:12:28;97560.28;;;5.12;100.00
5283;BME280;15376;48.540;9.268;2024-03-06T01:14:54;97550.19;;;5.07;100.00
5283;BME280;15376;48.540;9.268;2024-03-06T01:17:20;97558.53;;;5.20;100.00
5283;BME280;15376;48.540;9.268;2024-03-06T01:19:45;97552.09;;;5.15;100.00
5283;BME280;15376;48.540;9.268;2024-03-06T01:22:11;97545.84;;;5.16;100.00
5283;BME280;15376;48.540;9.268;2024-03-06T01:24:38;97554.44;;;5.18;100.00
5283;BME280;15376;48.540;9.268;2024-03-06T01:27:04;97546.28;;;5.11;100.00
5283;BME280;15376;48.540;9.268;2024-03-06T01:29:29;97550.56;;;5.12;100.00
5283;BME280;15376;48.540;9.268;2024-03-06T01:31:54;97567.13;;;5.22;100.00
5283;BME280;15376;48.540;9.268;2024-03-06T01:34:20;97556.22;;;5.17;100.00
5283;BME280;15376;48.540;9.268;2024-03-06T01:36:45;97565.94;;;5.17;100.00
5283;BME280;15376;48.540;9.268;2024-03-06T01:39:11;97552.38;;;5.12;100.00
5283;BME280;15376;48.540;9.268;2024-03-06T01:41:36;97554.75;;;5.05;100.00
5283;BME280;15376;48.540;9.268;2024-03-06T01:44:02;97565.97;;;5.07;100.00
5283;BME280;15376;48.540;9.268;2024-03-06T01:46:31;97567.78;;;5.07;100.00
5283;BME280;15376;48.540;9.268;2024-03-06T01:48:57;97562.09;;;5.11;100.00
5283;BME280;15376;48.540;9.268;2024-03-06T01:51:23;97568.84;;;5.14;100.00
5283;BME280;15376;48.540;9.268;2024-03-06T01:53:49;97570.81;;;5.12;100.00
5283;BME280;15376;48.540;9.268;2024-03-06T01:56:15;97563.63;;;5.04;100.00
5283;BME280;15376;48.540;9.268;2024-03-06T01:58:45;97561.97;;;5.03;100.00
5283;BME280;15376;48.540;9.268;2024-03-06T02:01:12;97556.19;;;4.99;100.00
5283;BME280;15376;48.540;9.268;2024-03-06T02:03:38;97567.09;;;5.05;100.00
5283;BME280;15376;48.540;9.268;2024-03-06T02:06:04;97559.09;;;4.96;100.00
5283;BME280;15376;48.540;9.268;2024-03-06T02:08:30;97550.09;;;4.99;100.00
5283;BME280;15376;48.540;9.268;2024-03-06T02:10:56;97557.53;;;5.03;100.00
5283;BME280;15376;48.540;9.268;2024-03-06T02:13:21;97563.78;;;5.02;100.00
5283;BME280;15376;48.540;9.268;2024-03-06T02:15:47;97555.88;;;5.02;100.00
5283;BME280;15376;48.540;9.268;2024-03-06T02:18:13;97548.72;;;4.95;100.00
5283;BME280;15376;48.540;9.268;2024-03-06T02:20:38;97542.63;;;4.94;100.00
5283;BME280;15376;48.540;9.268;2024-03-06T02:23:05;97550.13;;;4.89;100.00
5283;BME280;15376;48.540;9.268;2024-03-06T02:25:30;97565.34;;;4.95;100.00
5283;BME280;15376;48.540;9.268;2024-03-06T02:27:56;97549.00;;;4.92;100.00
5283;BME280;15376;48.540;9.268;2024-03-06T02:30:21;97555.38;;;4.89;100.00
5283;BME280;15376;48.540;9.268;2024-03-06T02:32:46;97560.22;;;4.94;100.00
5283;BME280;15376;48.540;9.268;2024-03-06T02:35:12;97560.50;;;4.91;100.00
5283;BME280;15376;48.540;9.268;2024-03-06T02:37:40;97558.03;;;4.89;100.00
5283;BME280;15376;48.540;9.268;2024-03-06T02:40:06;97559.81;;;4.89;100.00
5283;BME280;15376;48.540;9.268;2024-03-06T02:42:32;97571.84;;;4.91;100.00
5283;BME280;15376;48.540;9.268;2024-03-06T02:44:58;97574.19;;;4.94;100.00
5283;BME280;15376;48.540;9.268;2024-03-06T02:47:23;97560.66;;;4.89;100.00
5283;BME280;15376;48.540;9.268;2024-03-06T02:49:49;97559.97;;;4.87;100.00
5283;BME280;15376;48.540;9.268;2024-03-06T02:52:14;97560.94;;;4.86;100.00
5283;BME280;15376;48.540;9.268;2024-03-06T02:54:43;97561.78;;;4.87;100.00
5283;BME280;15376;48.540;9.268;2024-03-06T02:57:08;97564.25;;;4.88;100.00
5283;BME280;15376;48.540;9.268;2024-03-06T02:59:34;97569.38;;;4.90;100.00
5283;BME280;15376;48.540;9.268;2024-03-06T03:01:59;97564.25;;;4.88;100.00
5283;BME280;15376;48.540;9.268;2024-03-06T03:04:25;97573.50;;;4.92;100.00
5283;BME280;15376;48.540;9.268;2024-03-06T03:06:51;97570.34;;;4.89;100.00
5283;BME280;15376;48.540;9.268;2024-03-06T03:09:17;97566.34;;;4.85;100.00
5283;BME280;15376;48.540;9.268;2024-03-06T03:11:43;97573.13;;;4.87;100.00
5283;BME280;15376;48.540;9.268;2024-03-06T03:14:09;97576.44;;;4.89;100.00
5283;BME280;15376;48.540;9.268;2024-03-06T03:16:34;97572.28;;;4.87;100.00
5283;BME280;15376;48.540;9.268;2024-03-06T03:19:01;97574.50;;;4.91;100.00
5283;BME280;15376;48.540;9.268;2024-03-06T03:21:26;97571.03;;;4.91;100.00
5283;BME280;15376;48.540;9.268;2024-03-06T03:23:51;97572.69;;;4.92;100.00
5283;BME280;15376;48.540;9.268;2024-03-06T03:26:17;97580.44;;;4.93;100.00
5283;BME280;15376;48.540;9.268;2024-03-06T03:28:42;97583.91;;;4.94;100.00
5283;BME280;15376;48.540;9.268;2024-03-06T03:31:08;97577.25;;;4.90;100.00
5283;BME280;15376;48.540;9.268;2024-03-06T03:33:35;97582.78;;;4.96;100.00
5283;BME280;15376;48.540;9.268;2024-03-06T03:36:04;97585.41;;;4.96;100.00
5283;BME280;15376;48.540;9.268;2024-03-06T03:38:29;97583.06;;;4.93;100.00
5283;BME280;15376;48.540;9.268;2024-03-06T03:40:55;97585.56;;;4.95;100.00
5283;BME280;15376;48.540;9.268;2024-03-06T03:43:20;97589.16;;;4.94;100.00
5283;BME280;15376;48.540;9.268;2024-03-06T03:45:46;97586.09;;;4.98;100.00
5283;BME280;15376;48.540;9.268;2024-03-06T03:48:11;97574.19;;;4.94;100.00
5283;BME280;15376;48.540;9.268;2024-03-06T03:50:37;97586.38;;;4.95;100.00
5283;BME280;15376;48.540;9.268;2024-03-06T03:53:02;97574.50;;;4.91;100.00
5283;BME280;15376;48.540;9.268;2024-03-06T03:55:29;97584.31;;;4.89;100.00
5283;BME280;15376;48.540;9.268;2024-03-06T03:57:54;97586.97;;;4.89;100.00
5283;BME280;15376;48.540;9.268;2024-03-06T04:00:20;97587.53;;;4.83;100.00
5283;BME280;15376;48.540;9.268;2024-03-06T04:02:45;97580.31;;;4.85;100.00
5283;BME280;15376;48.540;9.268;2024-03-06T04:05:11;97595.94;;;4.96;100.00
5283;BME280;15376;48.540;9.268;2024-03-06T04:07:37;97594.69;;;5.00;100.00
5283;BME280;15376;48.540;9.268;2024-03-06T04:10:03;97587.78;;;4.90;100.00
5283;BME280;15376;48.540;9.268;2024-03-06T04:12:28;97595.81;;;4.88;100.00
5283;BME280;15376;48.540;9.268;2024-03-06T04:14:57;97592.66;;;4.85;100.00
5283;BME280;15376;48.540;9.268;2024-03-06T04:17:22;97600.53;;;4.85;100.00
5283;BME280;15376;48.540;9.268;2024-03-06T04:19:48;97603.56;;;4.90;100.00
5283;BME280;15376;48.540;9.268;2024-03-06T04:22:14;97604.00;;;4.85;100.00
5283;BME280;15376;48.540;9.268;2024-03-06T04:24:43;97604.00;;;4.85;100.00
5283;BME280;15376;48.540;9.268;2024-03-06T04:27:08;97611.63;;;4.88;100.00
5283;BME280;15376;48.540;9.268;2024-03-06T04:29:33;97615.22;;;4.87;100.00
5283;BME280;15376;48.540;9.268;2024-03-06T04:31:59;97611.22;;;4.83;100.00
5283;BME280;15376;48.540;9.268;2024-03-06T04:34:24;97614.97;;;4.81;100.00
5283;BME280;15376;48.540;9.268;2024-03-06T04:36:49;97624.38;;;4.83;100.00
5283;BME280;15376;48.540;9.268;2024-03-06T04:39:15;97619.66;;;4.87;100.00
5283;BME280;15376;48.540;9.268;2024-03-06T04:41:40;97619.56;;;4.79;100.00
5283;BME280;15376;48.540;9.268;2024-03-06T04:44:05;97630.03;;;4.88;100.00
5283;BME280;15376;48.540;9.268;2024-03-06T04:46:31;97631.00;;;4.87;100.00
5283;BME280;15376;48.540;9.268;2024-03-06T04:48:56;97627.69;;;4.85;100.00
5283;BME280;15376;48.540;9.268;2024-03-06T04:51:22;97632.41;;;4.82;100.00
5283;BME280;15376;48.540;9.268;2024-03-06T04:53:48;97640.56;;;4.88;100.00
5283;BME280;15376;48.540;9.268;2024-03-06T04:56:13;97645.13;;;4.86;100.00
5283;BME280;15376;48.540;9.268;2024-03-06T04:58:40;97638.22;;;4.85;100.00
5283;BME280;15376;48.540;9.268;2024-03-06T05:01:05;97648.44;;;4.88;100.00
5283;BME280;15376;48.540;9.268;2024-03-06T05:03:31;97644.03;;;4.89;100.00
5283;BME280;15376;48.540;9.268;2024-03-06T05:05:57;97648.03;;;4.83;100.00
5283;BME280;15376;48.540;9.268;2024-03-06T05:08:22;97641.03;;;4.74;100.00
5283;BME280;15376;48.540;9.268;2024-03-06T05:10:48;97645.31;;;4.75;100.00
5283;BME280;15376;48.540;9.268;2024-03-06T05:13:13;97651.84;;;4.71;100.00
5283;BME280;15376;48.540;9.268;2024-03-06T05:15:38;97656.81;;;4.74;100.00
5283;BME280;15376;48.540;9.268;2024-03-06T05:18:05;97646.88;;;4.58;100.00
5283;BME280;15376;48.540;9.268;2024-03-06T05:20:30;97661.81;;;4.67;100.00
5283;BME280;15376;48.540;9.268;2024-03-06T05:22:56;97653.09;;;4.67;100.00
5283;BME280;15376;48.540;9.268;2024-03-06T05:25:22;97657.38;;;4.68;100.00
5283;BME280;15376;48.540;9.268;2024-03-06T05:27:47;97651.44;;;4.66;100.00
5283;BME280;15376;48.540;9.268;2024-03-06T05:30:12;97647.84;;;4.67;100.00
5283;BME280;15376;48.540;9.268;2024-03-06T05:32:38;97660.69;;;4.70;100.00
5283;BME280;15376;48.540;9.268;2024-03-06T05:35:03;97655.44;;;4.70;100.00
5283;BME280;15376;48.540;9.268;2024-03-06T05:37:29;97660.69;;;4.70;100.00
5283;BME280;15376;48.540;9.268;2024-03-06T05:39:54;97673.44;;;4.75;100.00
5283;BME280;15376;48.540;9.268;2024-03-06T05:42:20;97660.97;;;4.67;100.00
5283;BME280;15376;48.540;9.268;2024-03-06T05:44:46;97669.28;;;4.72;100.00
5283;BME280;15376;48.540;9.268;2024-03-06T05:47:13;97673.56;;;4.73;100.00
5283;BME280;15376;48.540;9.268;2024-03-06T05:49:39;97670.94;;;4.73;100.00
5283;BME280;15376;48.540;9.268;2024-03-06T05:52:04;97679.09;;;4.80;100.00
5283;BME280;15376;48.540;9.268;2024-03-06T05:54:29;97682.53;;;4.80;100.00
5283;BME280;15376;48.540;9.268;2024-03-06T05:56:58;97686.16;;;4.79;100.00
5283;BME280;15376;48.540;9.268;2024-03-06T05:59:24;97689.44;;;4.81;100.00
5283;BME280;15376;48.540;9.268;2024-03-06T06:01:49;97687.00;;;4.80;100.00
5283;BME280;15376;48.540;9.268;2024-03-06T06:04:15;97686.16;;;4.79;100.00
5283;BME280;15376;48.540;9.268;2024-03-06T06:06:40;97703.56;;;4.80;100.00
5283;BME280;15376;48.540;9.268;2024-03-06T06:09:06;97702.31;;;4.84;100.00
5283;BME280;15376;48.540;9.268;2024-03-06T06:11:32;97693.22;;;4.79;100.00
5283;BME280;15376;48.540;9.268;2024-03-06T06:13:58;97705.66;;;4.86;100.00
5283;BME280;15376;48.540;9.268;2024-03-06T06:16:24;97699.31;;;4.79;100.00
5283;BME280;15376;48.540;9.268;2024-03-06T06:18:49;97713.53;;;4.86;100.00
5283;BME280;15376;48.540;9.268;2024-03-06T06:21:15;97709.09;;;4.87;100.00
5283;BME280;15376;48.540;9.268;2024-03-06T06:23:41;97718.53;;;4.89;100.00
5283;BME280;15376;48.540;9.268;2024-03-06T06:26:06;97710.22;;;4.84;100.00
5283;BME280;15376;48.540;9.268;2024-03-06T06:28:32;97730.44;;;4.93;100.00
5283;BME280;15376;48.540;9.268;2024-03-06T06:30:57;97719.91;;;4.93;100.00
5283;BME280;15376;48.540;9.268;2024-03-06T06:33:22;97719.06;;;4.93;100.00
5283;BME280;15376;48.540;9.268;2024-03-06T06:35:48;97726.69;;;4.96;100.00
5283;BME280;15376;48.540;9.268;2024-03-06T06:38:13;97734.28;;;4.99;100.00
5283;BME280;15376;48.540;9.268;2024-03-06T06:40:39;97736.50;;;5.03;100.00
5283;BME280;15376;48.540;9.268;2024-03-06T06:43:05;97728.31;;;5.07;100.00
5283;BME280;15376;48.540;9.268;2024-03-06T06:45:31;97726.38;;;5.09;100.00
5283;BME280;15376;48.540;9.268;2024-03-06T06:47:57;97733.88;;;5.03;100.00
5283;BME280;15376;48.540;9.268;2024-03-06T06:50:22;97722.41;;;4.95;100.00
5283;BME280;15376;48.540;9.268;2024-03-06T06:52:51;97734.84;;;5.02;100.00
5283;BME280;15376;48.540;9.268;2024-03-06T06:55:16;97732.75;;;5.06;100.00
5283;BME280;15376;48.540;9.268;2024-03-06T06:57:41;97733.31;;;5.10;100.00
5283;BME280;15376;48.540;9.268;2024-03-06T07:00:07;97740.22;;;5.11;100.00
5283;BME280;15376;48.540;9.268;2024-03-06T07:02:42;97742.72;;;5.12;100.00
5283;BME280;15376;48.540;9.268;2024-03-06T07:05:09;97728.88;;;5.10;100.00
5283;BME280;15376;48.540;9.268;2024-03-06T07:07:35;97737.03;;;5.17;100.00
5283;BME280;15376;48.540;9.268;2024-03-06T07:10:04;97737.19;;;5.15;100.00
5283;BME280;15376;48.540;9.268;2024-03-06T07:12:30;97742.31;;;5.17;100.00
5283;BME280;15376;48.540;9.268;2024-03-06T07:14:56;97735.38;;;5.16;100.00
5283;BME280;15376;48.540;9.268;2024-03-06T07:17:22;97739.66;;;5.17;100.00
5283;BME280;15376;48.540;9.268;2024-03-06T07:19:47;97739.25;;;5.12;100.00
5283;BME280;15376;48.540;9.268;2024-03-06T07:22:13;97732.63;;;5.08;100.00
5283;BME280;15376;48.540;9.268;2024-03-06T07:24:38;97750.47;;;5.14;100.00
5283;BME280;15376;48.540;9.268;2024-03-06T07:27:04;97745.06;;;5.15;100.00
5283;BME280;15376;48.540;9.268;2024-03-06T07:29:29;97746.72;;;5.16;100.00
5283;BME280;15376;48.540;9.268;2024-03-06T07:31:55;97758.78;;;5.19;100.00
5283;BME280;15376;48.540;9.268;2024-03-06T07:34:20;97748.91;;;5.21;100.00
5283;BME280;15376;48.540;9.268;2024-03-06T07:36:49;97757.22;;;5.26;100.00
5283;BME280;15376;48.540;9.268;2024-03-06T07:39:19;97755.00;;;5.21;100.00
5283;BME280;15376;48.540;9.268;2024-03-06T07:41:44;97756.09;;;5.28;100.00
5283;BME280;15376;48.540;9.268;2024-03-06T07:44:10;97755.28;;;5.28;100.00
5283;BME280;15376;48.540;9.268;2024-03-06T07:46:35;97759.53;;;5.39;100.00
5283;BME280;15376;48.540;9.268;2024-03-06T07:49:01;97763.56;;;5.43;100.00
5283;BME280;15376;48.540;9.268;2024-03-06T07:51:28;97762.59;;;5.34;100.00
5283;BME280;15376;48.540;9.268;2024-03-06T07:53:54;97773.66;;;5.47;100.00
5283;BME280;15376;48.540;9.268;2024-03-06T07:56:19;97773.25;;;5.42;100.00
5283;BME280;15376;48.540;9.268;2024-03-06T07:58:45;97772.44;;;5.42;100.00
5283;BME280;15376;48.540;9.268;2024-03-06T08:01:10;97769.38;;;5.46;100.00
5283;BME280;15376;48.540;9.268;2024-03-06T08:03:38;97774.66;;;5.36;100.00
5283;BME280;15376;48.540;9.268;2024-03-06T08:06:05;97784.50;;;5.34;100.00
5283;BME280;15376;48.540;9.268;2024-03-06T08:08:30;97781.47;;;5.29;100.00
5283;BME280;15376;48.540;9.268;2024-03-06T08:10:56;97779.91;;;5.36;100.00
5283;BME280;15376;48.540;9.268;2024-03-06T08:13:21;97777.69;;;5.42;100.00
5283;BME280;15376;48.540;9.268;2024-03-06T08:15:46;97785.03;;;5.48;100.00
5283;BME280;15376;48.540;9.268;2024-03-06T08:18:12;97784.47;;;5.44;100.00
5283;BME280;15376;48.540;9.268;2024-03-06T08:20:41;97783.22;;;5.48;100.00
5283;BME280;15376;48.540;9.268;2024-03-06T08:23:07;97779.06;;;5.46;100.00
5283;BME280;15376;48.540;9.268;2024-03-06T08:25:33;97773.81;;;5.46;100.00
5283;BME280;15376;48.540;9.268;2024-03-06T08:27:58;97782.38;;;5.57;100.00
5283;BME280;15376;48.540;9.268;2024-03-06T08:30:24;97766.50;;;5.67;100.00
5283;BME280;15376;48.540;9.268;2024-03-06T08:32:50;97773.97;;;5.72;100.00
5283;BME280;15376;48.540;9.268;2024-03-06T08:35:16;97784.06;;;5.76;100.00
5283;BME280;15376;48.540;9.268;2024-03-06T08:37:43;97788.00;;;5.62;100.00
5283;BME280;15376;48.540;9.268;2024-03-06T08:40:10;97781.22;;;5.60;100.00
5283;BME280;15376;48.540;9.268;2024-03-06T08:42:40;97776.94;;;5.59;100.00
5283;BME280;15376;48.540;9.268;2024-03-06T08:45:07;97785.81;;;5.58;100.00
5283;BME280;15376;48.540;9.268;2024-03-06T08:47:33;97783.41;;;5.64;100.00
5283;BME280;15376;48.540;9.268;2024-03-06T08:49:58;97801.00;;;5.74;100.00
5283;BME280;15376;48.540;9.268;2024-03-06T08:52:24;97791.72;;;5.69;100.00
5283;BME280;15376;48.540;9.268;2024-03-06T08:54:49;97756.88;;;5.48;100.00
5283;BME280;15376;48.540;9.268;2024-03-06T08:57:14;97791.56;;;5.71;100.00
5283;BME280;15376;48.540;9.268;2024-03-06T08:59:41;97798.91;;;5.77;100.00
5283;BME280;15376;48.540;9.268;2024-03-06T09:02:18;97800.03;;;5.75;100.00
5283;BME280;15376;48.540;9.268;2024-03-06T09:04:45;97801.72;;;5.66;100.00
5283;BME280;15376;48.540;9.268;2024-03-06T09:07:11;97801.69;;;5.76;100.00
5283;BME280;15376;48.540;9.268;2024-03-06T09:09:37;97807.50;;;5.89;100.00
5283;BME280;15376;48.540;9.268;2024-03-06T09:12:07;97799.38;;;6.00;100.00
5283;BME280;15376;48.540;9.268;2024-03-06T09:14:36;97805.28;;;6.12;100.00
5283;BME280;15376;48.540;9.268;2024-03-06T09:17:01;97808.81;;;6.02;100.00
5283;BME280;15376;48.540;9.268;2024-03-06T09:19:28;97806.22;;;5.93;100.00
5283;BME280;15376;48.540;9.268;2024-03-06T09:21:53;97806.78;;;5.96;100.00
5283;BME280;15376;48.540;9.268;2024-03-06T09:24:21;97811.91;;;5.98;100.00
5283;BME280;15376;48.540;9.268;2024-03-06T09:26:51;97821.00;;;6.03;100.00
5283;BME280;15376;48.540;9.268;2024-03-06T09:29:17;97819.59;;;6.09;100.00
5283;BME280;15376;48.540;9.268;2024-03-06T09:31:43;97813.31;;;5.92;100.00
5283;BME280;15376;48.540;9.268;2024-03-06T09:34:09;97825.09;;;5.98;100.00
5283;BME280;15376;48.540;9.268;2024-03-06T09:36:41;97824.41;;;5.96;100.00
5283;BME280;15376;48.540;9.268;2024-03-06T09:39:18;97838.25;;;5.98;100.00
5283;BME280;15376;48.540;9.268;2024-03-06T09:41:50;97827.41;;;6.01;100.00
5283;BME280;15376;48.540;9.268;2024-03-06T09:44:17;97827.94;;;6.05;100.00
5283;BME280;15376;48.540;9.268;2024-03-06T09:46:44;97826.56;;;6.00;100.00
5283;BME280;15376;48.540;9.268;2024-03-06T09:49:12;97826.97;;;6.06;100.00
5283;BME280;15376;48.540;9.268;2024-03-06T09:51:42;97833.47;;;6.11;100.00
5283;BME280;15376;48.540;9.268;2024-03-06T09:54:11;97835.81;;;6.14;100.00
5283;BME280;15376;48.540;9.268;2024-03-06T09:56:37;97829.69;;;6.14;100.00
5283;BME280;15376;48.540;9.268;2024-03-06T09:59:02;97830.94;;;6.19;100.00
5283;BME280;15376;48.540;9.268;2024-03-06T10:01:29;97831.50;;;6.13;100.00
5283;BME280;15376;48.540;9.268;2024-03-06T10:03:56;97839.81;;;6.18;100.00
5283;BME280;15376;48.540;9.268;2024-03-06T10:06:21;97841.47;;;6.19;100.00
5283;BME280;15376;48.540;9.268;2024-03-06T10:08:47;97845.97;;;6.09;100.00
5283;BME280;15376;48.540;9.268;2024-03-06T10:11:15;97840.16;;;6.06;100.00
5283;BME280;15376;48.540;9.268;2024-03-06T10:13:42;97840.41;;;6.12;100.00
5283;BME280;15376;48.540;9.268;2024-03-06T10:16:07;97838.19;;;6.08;100.00
5283;BME280;15376;48.540;9.268;2024-03-06T10:18:35;97842.91;;;6.04;100.00
5283;BME280;15376;48.540;9.268;2024-03-06T10:21:01;97847.31;;;6.13;100.00
5283;BME280;15376;48.540;9.268;2024-03-06T10:23:26;97836.38;;;6.08;100.00
5283;BME280;15376;48.540;9.268;2024-03-06T10:25:55;97843.44;;;6.17;100.00
5283;BME280;15376;48.540;9.268;2024-03-06T10:28:22;97845.34;;;6.25;100.00
5283;BME280;15376;48.540;9.268;2024-03-06T10:30:48;97843.81;;;6.22;100.00
5283;BME280;15376;48.540;9.268;2024-03-06T10:33:15;97849.50;;;6.27;100.00
5283;BME280;15376;48.540;9.268;2024-03-06T10:35:43;97844.22;;;6.27;100.00
5283;BME280;15376;48.540;9.268;2024-03-06T10:38:10;97845.59;;;6.31;100.00
5283;BME280;15376;48.540;9.268;2024-03-06T10:40:39;97841.97;;;6.32;100.00
5283;BME280;15376;48.540;9.268;2024-03-06T10:43:06;97837.84;;;6.20;100.00
5283;BME280;15376;48.540;9.268;2024-03-06T10:45:51;97844.13;;;6.19;100.00
5283;BME280;15376;48.540;9.268;2024-03-06T10:48:21;97838.72;;;6.11;100.00
5283;BME280;15376;48.540;9.268;2024-03-06T10:50:49;97847.88;;;6.17;100.00
5283;BME280;15376;48.540;9.268;2024-03-06T10:53:16;97844.53;;;6.15;100.00
5283;BME280;15376;48.540;9.268;2024-03-06T10:55:45;97852.41;;;6.24;100.00
5283;BME280;15376;48.540;9.268;2024-03-06T10:58:10;97845.47;;;6.23;100.00
5283;BME280;15376;48.540;9.268;2024-03-06T11:00:38;97853.41;;;6.23;100.00
5283;BME280;15376;48.540;9.268;2024-03-06T11:03:05;97846.47;;;6.22;100.00
5283;BME280;15376;48.540;9.268;2024-03-06T11:05:35;97845.34;;;6.25;100.00
5283;BME280;15376;48.540;9.268;2024-03-06T11:08:01;97846.66;;;6.11;100.00
5283;BME280;15376;48.540;9.268;2024-03-06T11:10:31;97855.94;;;6.15;100.00
5283;BME280;15376;48.540;9.268;2024-03-06T11:12:57;97853.19;;;6.07;100.00
5283;BME280;15376;48.540;9.268;2024-03-06T11:15:23;97855.66;;;6.09;100.00
5283;BME280;15376;48.540;9.268;2024-03-06T11:17:48;97861.66;;;6.01;100.00
5283;BME280;15376;48.540;9.268;2024-03-06T11:20:18;97858.16;;;6.10;100.00
5283;BME280;15376;48.540;9.268;2024-03-06T11:28:16;97872.38;;;5.99;100.00
5283;BME280;15376;48.540;9.268;2024-03-06T11:30:45;97862.13;;;5.96;100.00
5283;BME280;15376;48.540;9.268;2024-03-06T11:33:16;97870.47;;;5.92;100.00
5283;BME280;15376;48.540;9.268;2024-03-06T11:35:42;97863.25;;;5.84;100.00
5283;BME280;15376;48.540;9.268;2024-03-06T11:38:09;97869.06;;;5.88;100.00
5283;BME280;15376;48.540;9.268;2024-03-06T11:40:43;97862.69;;;5.81;100.00
5283;BME280;15376;48.540;9.268;2024-03-06T11:43:24;97864.63;;;5.88;100.00
5283;BME280;15376;48.540;9.268;2024-03-06T11:45:50;97864.50;;;5.90;100.00
5283;BME280;15376;48.540;9.268;2024-03-06T11:48:15;97871.00;;;5.95;100.00
5283;BME280;15376;48.540;9.268;2024-03-06T11:50:42;97874.56;;;6.04;100.00
5283;BME280;15376;48.540;9.268;2024-03-06T11:53:08;97865.34;;;6.18;100.00
5283;BME280;15376;48.540;9.268;2024-03-06T11:55:33;97861.75;;;6.19;100.00
5283;BME280;15376;48.540;9.268;2024-03-06T11:57:59;97852.72;;;6.21;100.00
5283;BME280;15376;48.540;9.268;2024-03-06T12:00:24;97866.94;;;6.38;100.00
5283;BME280;15376;48.540;9.268;2024-03-06T12:02:50;97864.22;;;6.48;100.00
5283;BME280;15376;48.540;9.268;2024-03-06T12:05:17;97868.59;;;6.57;100.00
5283;BME280;15376;48.540;9.268;2024-03-06T12:07:52;97850.97;;;6.40;100.00
5283;BME280;15376;48.540;9.268;2024-03-06T12:10:17;97869.88;;;6.53;100.00
5283;BME280;15376;48.540;9.268;2024-03-06T12:12:44;97859.03;;;6.56;100.00
5283;BME280;15376;48.540;9.268;2024-03-06T12:15:15;97850.13;;;6.57;100.00
5283;BME280;15376;48.540;9.268;2024-03-06T12:17:45;97855.81;;;6.62;100.00
5283;BME280;15376;48.540;9.268;2024-03-06T12:20:12;97835.66;;;6.61;100.00
5283;BME280;15376;48.540;9.268;2024-03-06T12:22:50;97859.13;;;6.82;100.00
5283;BME280;15376;48.540;9.268;2024-03-06T12:25:25;97866.16;;;6.91;100.00
5283;BME280;15376;48.540;9.268;2024-03-06T12:27:52;97851.00;;;6.93;100.00
5283;BME280;15376;48.540;9.268;2024-03-06T12:30:19;97854.06;;;6.88;100.00
5283;BME280;15376;48.540;9.268;2024-03-06T12:32:56;97844.50;;;6.87;100.00
5283;BME280;15376;48.540;9.268;2024-03-06T12:35:28;97859.34;;;6.88;100.00
5283;BME280;15376;48.540;9.268;2024-03-06T12:37:53;97850.31;;;6.73;100.00
5283;BME280;15376;48.540;9.268;2024-03-06T12:40:22;97864.41;;;6.64;100.00
5283;BME280;15376;48.540;9.268;2024-03-06T12:42:47;97857.66;;;6.52;100.00
5283;BME280;15376;48.540;9.268;2024-03-06T12:45:15;97862.34;;;6.58;100.00
5283;BME280;15376;48.540;9.268;2024-03-06T12:47:41;97854.94;;;6.44;100.00
5283;BME280;15376;48.540;9.268;2024-03-06T12:50:07;97855.31;;;6.49;100.00
5283;BME280;15376;48.540;9.268;2024-03-06T12:52:42;97859.38;;;6.43;100.00
5283;BME280;15376;48.540;9.268;2024-03-06T12:55:11;97866.84;;;6.48;100.00
5283;BME280;15376;48.540;9.268;2024-03-06T12:57:36;97852.97;;;6.46;100.00
5283;BME280;15376;48.540;9.268;2024-03-06T13:00:02;97860.44;;;6.50;100.00
5283;BME280;15376;48.540;9.268;2024-03-06T13:02:28;97844.84;;;6.57;100.00
5283;BME280;15376;48.540;9.268;2024-03-06T13:04:53;97852.19;;;6.63;100.00
5283;BME280;15376;48.540;9.268;2024-03-06T13:07:19;97850.53;;;6.62;100.00
5283;BME280;15376;48.540;9.268;2024-03-06T13:09:45;97851.50;;;6.61;100.00
5283;BME280;15376;48.540;9.268;2024-03-06T13:12:10;97846.56;;;6.48;100.00